createdAt,value
2023-05-11T00:03:07.516Z,24.4
2023-05-11T00:08:44.363Z,24.3
2023-05-11T00:14:20.505Z,24
2023-05-11T00:19:41.986Z,23.9
2023-05-11T00:25:18.161Z,23.8
2023-05-11T00:30:39.288Z,23.6
2023-05-11T00:36:16.739Z,23.4
2023-05-11T00:41:55.951Z,23.3
2023-05-11T00:47:32.239Z,23.1
2023-05-11T00:53:08.517Z,22.9
2023-05-11T00:58:44.437Z,22.9
2023-05-11T01:04:21.402Z,22.8
2023-05-11T01:09:57.651Z,22.7
2023-05-11T01:15:49.690Z,22.6
2023-05-11T01:21:26.349Z,22.5
2023-05-11T01:27:02.266Z,22.4
2023-05-11T01:32:56.115Z,22.4
2023-05-11T01:38:47.902Z,22.3
2023-05-11T01:44:38.948Z,22.3
2023-05-11T01:50:15.848Z,22.3
2023-05-11T01:56:07.309Z,22.2
2023-05-11T02:01:58.659Z,22.2
2023-05-11T02:07:50.993Z,22.2
2023-05-11T02:13:42.370Z,22.1
2023-05-11T02:19:34.828Z,22.1
2023-05-11T02:25:26.336Z,22.1
2023-05-11T02:31:02.835Z,22.1
2023-05-11T02:36:54.769Z,22.1
2023-05-11T02:42:47.060Z,22
2023-05-11T02:48:39.209Z,22
2023-05-11T02:54:31.216Z,22
2023-05-11T03:00:23.273Z,21.9
2023-05-11T03:06:17.525Z,21.9
2023-05-11T03:12:11.087Z,21.9
2023-05-11T03:18:02.862Z,21.9
2023-05-11T03:23:54.621Z,21.8
2023-05-11T03:29:46.257Z,21.8
2023-05-11T03:35:41.343Z,21.8
2023-05-11T03:41:32.542Z,21.7
2023-05-11T03:47:26.419Z,21.7
2023-05-11T03:53:18.691Z,21.7
2023-05-11T03:59:10.116Z,21.6
2023-05-11T04:05:03.327Z,21.6
2023-05-11T04:10:54.916Z,21.6
2023-05-11T04:16:46.734Z,21.6
2023-05-11T04:22:38.850Z,21.5
2023-05-11T04:28:30.358Z,21.5
2023-05-11T04:34:21.574Z,21.4
2023-05-11T04:40:13.806Z,21.4
2023-05-11T04:46:04.586Z,21.4
2023-05-11T04:51:41.406Z,21.4
2023-05-11T04:57:17.900Z,21.3
2023-05-11T05:02:54.139Z,21.3
2023-05-11T05:08:32.771Z,21.3
2023-05-11T05:14:23.750Z,21.2
2023-05-11T05:20:15.260Z,21.2
2023-05-11T05:26:06.668Z,21.2
2023-05-11T05:43:11.741Z,21.1
2023-05-11T05:49:05.520Z,21.1
2023-05-11T05:54:57.016Z,21
2023-05-11T06:00:50.649Z,21
2023-05-11T06:06:46.096Z,20.9
2023-05-11T06:12:40.513Z,20.9
2023-05-11T06:18:32.613Z,20.9
2023-05-11T06:24:23.963Z,20.9
2023-05-11T06:30:03.194Z,20.9
2023-05-11T06:35:40.490Z,20.9
2023-05-11T06:41:17.186Z,20.8
2023-05-11T06:47:09.654Z,20.8
2023-05-11T06:53:05.134Z,20.8
2023-05-11T06:58:56.439Z,20.8
2023-05-11T07:04:48.613Z,20.8
2023-05-11T07:10:41.162Z,20.8
2023-05-11T07:16:33.436Z,20.7
2023-05-11T07:22:10.091Z,20.7
2023-05-11T07:27:31.256Z,20.7
2023-05-11T07:33:08.866Z,20.6
2023-05-11T07:38:45.590Z,20.6
2023-05-11T07:44:40.245Z,20.6
2023-05-11T07:51:06.410Z,20.6
2023-05-11T07:56:43.189Z,20.6
2023-05-11T08:02:35.582Z,20.6
2023-05-11T08:08:30.761Z,20.6
2023-05-11T08:14:07.437Z,20.6
2023-05-11T08:20:00.214Z,20.5
2023-05-11T08:25:55.172Z,20.5
2023-05-11T08:31:34.234Z,20.5
2023-05-11T08:37:22.206Z,20.5
2023-05-11T08:43:15.361Z,20.5
2023-05-11T08:49:26.137Z,20.4
2023-05-11T08:55:18.085Z,20.4
2023-05-11T09:01:10.837Z,20.4
2023-05-11T09:07:03.470Z,20.4
2023-05-11T09:12:41.798Z,20.4
2023-05-11T09:18:57.014Z,20.4
2023-05-11T09:24:18.133Z,20.4
2023-05-11T09:30:25.269Z,20.4
2023-05-11T09:36:05.695Z,20.4
2023-05-11T09:42:09.695Z,20.4
2023-05-11T09:48:05.599Z,20.4
2023-05-11T09:54:01.196Z,20.4
2023-05-11T09:59:36.815Z,20.3
2023-05-11T10:05:13.134Z,20.4
2023-05-11T10:11:06.689Z,20.3
2023-05-11T10:16:46.882Z,20.3
2023-05-11T10:22:39.492Z,20.3
2023-05-11T10:28:33.134Z,20.3
2023-05-11T10:34:25.310Z,20.3
2023-05-11T10:40:16.803Z,20.3
2023-05-11T10:46:09.393Z,20.3
2023-05-11T10:52:05.244Z,20.3
2023-05-11T10:57:58.624Z,20.3
2023-05-11T11:03:51.005Z,20.3
2023-05-11T11:09:42.787Z,20.3
2023-05-11T11:15:35.719Z,20.3
2023-05-11T11:21:28.134Z,20.3
2023-05-11T11:27:18.636Z,20.2
2023-05-11T11:33:10.628Z,20.2
2023-05-11T11:39:02.540Z,20.3
2023-05-11T11:45:16.425Z,20.2
2023-05-11T11:51:08.869Z,20.2
2023-05-11T11:57:01.309Z,20.2
2023-05-11T12:02:54.482Z,20.2
2023-05-11T12:08:47.879Z,20.2
2023-05-11T12:14:39.731Z,20.2
2023-05-11T12:20:31.232Z,20.2
2023-05-11T12:26:23.239Z,20.2
2023-05-11T12:32:14.762Z,20.2
2023-05-11T12:38:06.273Z,20.2
2023-05-11T12:43:57.320Z,20.1
2023-05-11T12:49:49.628Z,20.1
2023-05-11T12:55:40.766Z,20.1
2023-05-11T13:01:32.571Z,20.1
2023-05-11T13:07:09.346Z,20.1
2023-05-11T13:13:03.656Z,20.1
2023-05-11T13:18:56.524Z,20.1
2023-05-11T13:24:49.136Z,20.1
2023-05-11T13:30:53.018Z,20.1
2023-05-11T13:36:29.435Z,20.1
2023-05-11T13:42:20.652Z,20.1
2023-05-11T13:48:16.201Z,20.1
2023-05-11T13:54:08.067Z,20.1
2023-05-11T13:59:59.540Z,20.1
2023-05-11T14:06:12.174Z,20.1
2023-05-11T14:12:16.486Z,20.1
2023-05-11T14:18:09.740Z,20
2023-05-11T14:24:02.372Z,20
2023-05-11T14:30:04.782Z,20.1
2023-05-11T14:35:58.539Z,20.1
2023-05-11T14:41:51.089Z,20
2023-05-11T14:47:43.596Z,20
2023-05-11T14:53:35.385Z,20
2023-05-11T14:59:27.611Z,20
2023-05-11T15:05:35.353Z,20
2023-05-11T15:11:42.913Z,20
2023-05-11T15:17:35.450Z,20
2023-05-11T15:23:28.538Z,20
2023-05-11T15:29:21.151Z,20
2023-05-11T15:35:31.505Z,19.9
2023-05-11T15:41:25.505Z,20
2023-05-11T15:47:18.195Z,19.9
2023-05-11T15:52:57.694Z,20
2023-05-11T15:58:51.436Z,19.9
2023-05-11T16:04:47.006Z,19.9
2023-05-11T16:10:40.372Z,19.9
2023-05-11T16:16:35.553Z,19.9
2023-05-11T16:22:32.073Z,19.9
2023-05-11T16:28:28.378Z,19.9
2023-05-11T16:34:37.677Z,19.9
2023-05-11T16:40:34.878Z,19.9
2023-05-11T16:46:29.080Z,19.9
2023-05-11T16:52:28.477Z,19.9
2023-05-11T16:58:28.614Z,19.9
2023-05-11T17:04:31.330Z,19.9
2023-05-11T17:10:31.741Z,19.8
2023-05-11T17:16:32.781Z,19.8
2023-05-11T17:22:33.327Z,19.9
2023-05-11T17:28:45.814Z,19.8
2023-05-11T17:35:19.465Z,19.9
2023-05-11T17:41:28.788Z,19.8
2023-05-11T17:47:31.151Z,19.8
2023-05-11T17:53:31.949Z,19.8
2023-05-11T17:59:32.684Z,19.8
2023-05-11T18:05:47.366Z,19.8
2023-05-11T18:11:49.584Z,19.8
2023-05-11T18:17:37.978Z,19.8
2023-05-11T18:23:38.914Z,19.8
2023-05-11T18:29:38.915Z,19.8
2023-05-11T18:35:23.593Z,19.8
2023-05-11T18:41:25.747Z,19.8
2023-05-11T18:47:25.199Z,19.8
2023-05-11T18:53:29.415Z,19.8
2023-05-11T18:59:45.035Z,19.8
2023-05-11T19:05:57.141Z,19.8
2023-05-11T19:12:01.065Z,19.8
2023-05-11T19:18:03.302Z,19.8
2023-05-11T19:24:07.910Z,19.8
2023-05-11T19:30:16.469Z,19.8
2023-05-11T19:36:19.338Z,19.8
2023-05-11T19:43:12.021Z,19.8
2023-05-11T19:49:12.332Z,19.8
2023-05-11T19:55:16.674Z,19.8
2023-05-11T20:05:16.325Z,19.7
2023-05-11T20:11:20.508Z,19.7
2023-05-11T20:17:21.308Z,19.8
2023-05-11T20:23:22.624Z,19.8
2023-05-11T20:29:24.198Z,19.7
2023-05-11T20:35:38.804Z,19.7
2023-05-11T20:41:37.821Z,19.7
2023-05-11T20:47:38.139Z,19.7
2023-05-11T20:53:57.458Z,19.7
2023-05-11T21:00:04.052Z,19.7
2023-05-11T21:06:06.130Z,19.7
2023-05-11T21:12:03.817Z,19.7
2023-05-11T21:18:02.395Z,19.7
2023-05-11T21:23:59.115Z,19.7
2023-05-11T21:29:38.168Z,19.7
2023-05-11T21:35:01.095Z,19.6
2023-05-11T21:40:39.092Z,19.6
2023-05-11T21:45:59.378Z,19.6
2023-05-11T21:51:35.194Z,19.6
2023-05-11T21:57:11.721Z,19.6
2023-05-11T22:02:48.877Z,19.6
2023-05-11T22:08:32.991Z,19.6
2023-05-11T22:14:09.951Z,19.6
2023-05-11T22:19:45.708Z,19.6
2023-05-11T22:25:21.653Z,19.6
2023-05-11T22:30:42.596Z,19.6
2023-05-11T22:36:34.401Z,19.6
2023-05-11T22:41:39.608Z,19.6
2023-05-11T22:47:01.073Z,19.7
2023-05-11T22:52:21.584Z,19.6
2023-05-11T22:57:42.385Z,19.7
2023-05-11T23:03:05.109Z,19.6
2023-05-11T23:08:25.888Z,19.6
2023-05-11T23:14:01.435Z,19.7
2023-05-11T23:19:23.406Z,19.6
2023-05-11T23:24:28.290Z,19.6
2023-05-11T23:29:48.535Z,19.6
2023-05-11T23:35:10.788Z,19.7
2023-05-11T23:40:31.692Z,19.6
2023-05-11T23:45:52.716Z,19.6
2023-05-11T23:51:29.634Z,19.6
2023-05-11T23:56:50.108Z,19.6
